Time;durP1;ratioP1;P1;durP2;ratioP2;P2;SDS_P1;SDS_P2;PMS_P1;PMS_P2;Temp;Humidity;BMP_temperature;BMP_pressure;BME280_temperature;BME280_humidity;BME280_pressure;Samples;Min_cycle;Max_cycle;Signal;HPM_P1;HPM_P2
2021/08/15 00:00:09;;;;;;;13.05;6.93;;;;;;;;;;5037132;28;20042;-77
2021/08/15 00:02:35;;;;;;;14.55;6.60;;;;;;;;;;5036411;28;20087;-77
2021/08/15 00:05:03;;;;;;;12.48;6.40;;;;;;;;;;5036387;28;20124;-77
2021/08/15 00:07:29;;;;;;;16.67;8.40;;;;;;;;;;5036187;28;20041;-77
2021/08/15 00:09:55;;;;;;;14.65;7.65;;;;;;;;;;5036100;28;20052;-76
2021/08/15 00:12:21;;;;;;;13.13;6.90;;;;;;;;;;5035991;28;20060;-77
2021/08/15 00:14:47;;;;;;;16.50;10.23;;;;;;;;;;5036524;28;20041;-76
2021/08/15 00:17:13;;;;;;;11.23;6.90;;;;;;;;;;5036274;28;20045;-77
2021/08/15 00:19:39;;;;;;;25.15;16.80;;;;;;;;;;5036262;28;20124;-77
2021/08/15 00:22:06;;;;;;;15.18;6.75;;;;;;;;;;5035110;28;20123;-77
2021/08/15 00:24:36;;;;;;;14.80;7.90;;;;;;;;;;5035729;28;20044;-77
2021/08/15 00:27:02;;;;;;;15.70;7.10;;;;;;;;;;5035691;28;20045;-77
2021/08/15 00:29:28;;;;;;;14.70;7.72;;;;;;;;;;5035617;28;20187;-76
2021/08/15 00:31:54;;;;;;;12.02;7.03;;;;;;;;;;5035254;28;20554;-76
2021/08/15 00:34:21;;;;;;;13.75;7.25;;;;;;;;;;5035323;28;20045;-77
2021/08/15 00:36:47;;;;;;;19.42;7.90;;;;;;;;;;5035180;28;20045;-77
2021/08/15 00:39:13;;;;;;;21.10;7.82;;;;;;;;;;5035495;28;20042;-77
2021/08/15 00:41:39;;;;;;;15.82;7.53;;;;;;;;;;5035227;28;20037;-76
2021/08/15 00:44:06;;;;;;;13.43;7.22;;;;;;;;;;5035410;28;20037;-77
2021/08/15 00:46:32;;;;;;;13.27;6.88;;;;;;;;;;5035263;28;20172;-76
2021/08/15 00:48:59;;;;;;;13.25;6.93;;;;;;;;;;5035236;28;20041;-77
2021/08/15 00:51:25;;;;;;;16.15;7.35;;;;;;;;;;5034897;28;20408;-77
2021/08/15 00:53:51;;;;;;;14.75;7.53;;;;;;;;;;5035516;28;20041;-76
2021/08/15 00:56:18;;;;;;;13.63;6.63;;;;;;;;;;5035497;28;20116;-76
2021/08/15 00:58:44;;;;;;;10.38;6.72;;;;;;;;;;5035117;28;20049;-77
2021/08/15 01:01:10;;;;;;;13.07;7.55;;;;;;;;;;5035704;28;20046;-77
2021/08/15 01:03:37;;;;;;;17.17;7.75;;;;;;;;;;5035036;28;20132;-76
2021/08/15 01:06:03;;;;;;;14.43;7.32;;;;;;;;;;5034892;28;20041;-76
2021/08/15 01:08:33;;;;;;;13.13;7.28;;;;;;;;;;5034890;28;20099;-77
2021/08/15 01:11:00;;;;;;;15.65;8.00;;;;;;;;;;5035238;28;20045;-77
2021/08/15 01:13:27;;;;;;;13.98;7.53;;;;;;;;;;5034860;28;20077;-77
2021/08/15 01:15:53;;;;;;;15.32;7.13;;;;;;;;;;5034814;28;20120;-76
2021/08/15 01:18:23;;;;;;;11.13;7.25;;;;;;;;;;5034760;28;20056;-77
2021/08/15 01:20:55;;;;;;;15.18;7.68;;;;;;;;;;5034044;28;20037;-76
2021/08/15 01:23:21;;;;;;;11.50;8.00;;;;;;;;;;5034657;28;20083;-77
2021/08/15 01:25:47;;;;;;;12.77;7.40;;;;;;;;;;5035050;28;20037;-77
2021/08/15 01:28:16;;;;;;;18.02;8.32;;;;;;;;;;5034893;28;20096;-77
2021/08/15 01:30:42;;;;;;;16.00;8.55;;;;;;;;;;5034642;28;20041;-77
2021/08/15 01:33:10;;;;;;;15.57;7.68;;;;;;;;;;5034339;28;20132;-76
2021/08/15 01:35:36;;;;;;;13.35;7.40;;;;;;;;;;5034412;28;20048;-77
2021/08/15 01:38:02;;;;;;;15.43;7.88;;;;;;;;;;5035425;28;20045;-76
2021/08/15 01:40:28;;;;;;;16.05;7.68;;;;;;;;;;5034907;28;20040;-76
2021/08/15 01:42:55;;;;;;;12.77;7.43;;;;;;;;;;5035035;28;20380;-76
2021/08/15 01:45:21;;;;;;;20.60;7.72;;;;;;;;;;5034660;28;20043;-77
2021/08/15 01:47:47;;;;;;;15.85;7.93;;;;;;;;;;5034642;28;20049;-76
2021/08/15 01:50:13;;;;;;;14.27;7.68;;;;;;;;;;5035163;28;20100;-77
2021/08/15 01:52:39;;;;;;;19.73;7.82;;;;;;;;;;5034647;28;20045;-76
2021/08/15 01:55:07;;;;;;;12.45;7.43;;;;;;;;;;5034694;28;20044;-77
2021/08/15 01:57:33;;;;;;;14.88;7.18;;;;;;;;;;5034685;28;20042;-77
2021/08/15 01:59:59;;;;;;;16.20;7.13;;;;;;;;;;5035232;28;20041;-77
2021/08/15 02:02:25;;;;;;;18.90;12.05;;;;;;;;;;5034585;28;20048;-76
2021/08/15 02:04:51;;;;;;;19.60;11.68;;;;;;;;;;5034134;28;20409;-77
2021/08/15 02:07:17;;;;;;;15.68;7.78;;;;;;;;;;5034742;28;20049;-76
2021/08/15 02:09:43;;;;;;;24.40;14.35;;;;;;;;;;5035050;28;20069;-77
2021/08/15 02:12:09;;;;;;;19.55;11.50;;;;;;;;;;5034536;28;20045;-76
2021/08/15 02:14:36;;;;;;;14.20;7.85;;;;;;;;;;5034063;28;20041;-77
2021/08/15 02:17:02;;;;;;;19.02;8.25;;;;;;;;;;5034446;28;20064;-76
2021/08/15 02:19:28;;;;;;;12.50;8.20;;;;;;;;;;5033788;28;20038;-76
2021/08/15 02:21:54;;;;;;;16.45;8.00;;;;;;;;;;5033907;28;20045;-76
2021/08/15 02:24:20;;;;;;;13.55;7.50;;;;;;;;;;5034339;28;20087;-77
2021/08/15 02:26:46;;;;;;;14.55;7.28;;;;;;;;;;5033979;28;20084;-76
2021/08/15 02:29:12;;;;;;;13.40;7.95;;;;;;;;;;5034105;28;20045;-76
2021/08/15 02:31:38;;;;;;;20.05;14.52;;;;;;;;;;5033783;28;20044;-77
2021/08/15 02:34:04;;;;;;;20.48;8.57;;;;;;;;;;5034178;28;20037;-76
2021/08/15 02:36:31;;;;;;;15.40;8.00;;;;;;;;;;5033838;28;20064;-76
2021/08/15 02:38:57;;;;;;;17.27;8.30;;;;;;;;;;5033878;28;20061;-76
2021/08/15 02:41:23;;;;;;;16.15;8.55;;;;;;;;;;5034285;28;20049;-76
2021/08/15 02:43:49;;;;;;;12.00;8.85;;;;;;;;;;5035176;28;20457;-76
2021/08/15 02:46:15;;;;;;;16.50;8.73;;;;;;;;;;5037818;28;20041;-76
2021/08/15 02:48:41;;;;;;;15.20;9.90;;;;;;;;;;5038103;28;20049;-76
2021/08/15 02:51:07;;;;;;;19.63;8.63;;;;;;;;;;5037014;28;20405;-77
2021/08/15 02:53:33;;;;;;;10.55;7.88;;;;;;;;;;5037264;28;20045;-76
2021/08/15 02:55:59;;;;;;;15.23;8.27;;;;;;;;;;5037231;28;20041;-76
2021/08/15 02:58:25;;;;;;;16.60;9.10;;;;;;;;;;5037182;28;20048;-76
2021/08/15 03:00:54;;;;;;;22.73;9.40;;;;;;;;;;5037457;28;20045;-76
2021/08/15 03:03:20;;;;;;;17.85;8.60;;;;;;;;;;5037052;28;20042;-76
2021/08/15 03:05:46;;;;;;;17.65;8.75;;;;;;;;;;5037075;28;20048;-76
2021/08/15 03:08:12;;;;;;;15.60;8.70;;;;;;;;;;5036914;28;20052;-77
2021/08/15 03:10:38;;;;;;;18.98;9.60;;;;;;;;;;5037473;28;20248;-77
2021/08/15 03:13:06;;;;;;;16.52;9.10;;;;;;;;;;5037156;28;20508;-77
2021/08/15 03:15:32;;;;;;;19.13;9.23;;;;;;;;;;5036960;28;20436;-76
2021/08/15 03:17:59;;;;;;;16.38;9.32;;;;;;;;;;5036988;28;20099;-77
2021/08/15 03:20:27;;;;;;;18.35;9.65;;;;;;;;;;5036234;28;20052;-76
2021/08/15 03:22:53;;;;;;;13.50;8.90;;;;;;;;;;5036929;28;20049;-77
2021/08/15 03:25:19;;;;;;;21.33;9.32;;;;;;;;;;5036873;28;20040;-76
2021/08/15 03:27:45;;;;;;;13.57;9.40;;;;;;;;;;5037127;28;20047;-76
2021/08/15 03:30:12;;;;;;;19.35;9.80;;;;;;;;;;5037431;28;20046;-76
2021/08/15 03:32:38;;;;;;;18.30;10.05;;;;;;;;;;5037644;28;20128;-77
2021/08/15 03:35:05;;;;;;;16.42;10.30;;;;;;;;;;5037419;28;20033;-76
2021/08/15 03:37:31;;;;;;;16.70;9.63;;;;;;;;;;5037541;28;20085;-77
2021/08/15 03:39:57;;;;;;;19.63;10.43;;;;;;;;;;5037268;28;20049;-76
2021/08/15 03:42:23;;;;;;;18.10;10.43;;;;;;;;;;5037466;28;20124;-77
2021/08/15 03:44:49;;;;;;;18.52;10.93;;;;;;;;;;5036875;28;20045;-77
2021/08/15 03:47:15;;;;;;;16.45;10.70;;;;;;;;;;5037023;28;20077;-76
2021/08/15 03:49:41;;;;;;;21.90;11.27;;;;;;;;;;5036621;28;20552;-77
2021/08/15 03:52:07;;;;;;;18.23;10.75;;;;;;;;;;5036304;28;20076;-77
2021/08/15 03:54:34;;;;;;;15.70;10.63;;;;;;;;;;5036245;28;20037;-77
2021/08/15 03:57:00;;;;;;;17.98;11.07;;;;;;;;;;5036112;28;20049;-76
2021/08/15 03:59:26;;;;;;;18.65;12.10;;;;;;;;;;5037358;28;20029;-76
2021/08/15 04:01:52;;;;;;;20.27;11.45;;;;;;;;;;5036791;28;20472;-77
2021/08/15 04:04:18;;;;;;;17.80;11.60;;;;;;;;;;5036489;28;20488;-77
2021/08/15 04:06:45;;;;;;;15.00;11.65;;;;;;;;;;5035937;28;20048;-77
2021/08/15 04:09:11;;;;;;;21.70;12.15;;;;;;;;;;5036022;28;20037;-76
2021/08/15 04:11:38;;;;;;;18.38;12.48;;;;;;;;;;5036549;28;20053;-76
2021/08/15 04:14:05;;;;;;;19.50;12.93;;;;;;;;;;5037051;28;20111;-77
2021/08/15 04:16:31;;;;;;;25.75;13.40;;;;;;;;;;5035983;28;20065;-77
2021/08/15 04:18:57;;;;;;;18.65;13.20;;;;;;;;;;5036471;28;20048;-76
2021/08/15 04:21:23;;;;;;;16.48;13.23;;;;;;;;;;5035710;28;20042;-77
2021/08/15 04:23:49;;;;;;;20.60;13.65;;;;;;;;;;5035603;28;20430;-76
2021/08/15 04:26:15;;;;;;;19.83;13.55;;;;;;;;;;5035522;28;20095;-76
2021/08/15 04:28:42;;;;;;;17.35;13.50;;;;;;;;;;5035968;28;20380;-76
2021/08/15 04:31:08;;;;;;;16.52;12.43;;;;;;;;;;5035927;28;20500;-77
2021/08/15 04:33:34;;;;;;;19.00;13.55;;;;;;;;;;5035674;28;20037;-76
2021/08/15 04:36:00;;;;;;;16.42;12.00;;;;;;;;;;5035502;28;20128;-77
2021/08/15 04:38:26;;;;;;;19.30;12.85;;;;;;;;;;5035980;28;20041;-77
2021/08/15 04:40:52;;;;;;;19.13;12.23;;;;;;;;;;5035833;28;20037;-77
2021/08/15 04:43:19;;;;;;;16.83;12.52;;;;;;;;;;5035245;28;20041;-77
2021/08/15 04:45:48;;;;;;;15.10;12.35;;;;;;;;;;5035361;28;20148;-76
2021/08/15 04:48:15;;;;;;;16.00;12.85;;;;;;;;;;5035355;28;20075;-76
2021/08/15 04:50:41;;;;;;;14.20;11.32;;;;;;;;;;5017252;28;20049;-77
2021/08/15 04:53:07;;;;;;;16.65;11.95;;;;;;;;;;5035244;28;20080;-76
2021/08/15 04:55:33;;;;;;;12.73;11.43;;;;;;;;;;5035180;28;20116;-76
2021/08/15 04:58:00;;;;;;;12.40;10.95;;;;;;;;;;5035205;28;20132;-76
2021/08/15 05:00:26;;;;;;;12.48;11.02;;;;;;;;;;5035483;28;20511;-76
2021/08/15 05:02:52;;;;;;;12.07;9.95;;;;;;;;;;5035078;28;20029;-76
2021/08/15 05:05:18;;;;;;;11.45;10.25;;;;;;;;;;5034914;28;20106;-77
2021/08/15 05:07:44;;;;;;;11.38;9.68;;;;;;;;;;5034991;28;20041;-77
2021/08/15 05:10:11;;;;;;;10.68;9.07;;;;;;;;;;5035579;28;20550;-77
2021/08/15 05:12:37;;;;;;;11.68;8.98;;;;;;;;;;5034652;28;20041;-77
2021/08/15 05:15:03;;;;;;;10.50;9.25;;;;;;;;;;5034623;28;20049;-77
2021/08/15 05:17:29;;;;;;;10.07;9.07;;;;;;;;;;5034805;28;20481;-77
2021/08/15 05:19:56;;;;;;;10.65;9.55;;;;;;;;;;5034408;28;20041;-76
2021/08/15 05:22:22;;;;;;;10.50;9.50;;;;;;;;;;5034433;28;20560;-77
2021/08/15 05:24:48;;;;;;;12.65;9.75;;;;;;;;;;5034749;28;20551;-76
2021/08/15 05:27:14;;;;;;;11.82;9.80;;;;;;;;;;5034651;28;20041;-76
2021/08/15 05:29:40;;;;;;;14.45;10.63;;;;;;;;;;5034738;28;20041;-76
2021/08/15 05:32:06;;;;;;;12.68;11.35;;;;;;;;;;5034421;28;20172;-77
2021/08/15 05:34:32;;;;;;;11.25;9.98;;;;;;;;;;5035199;28;20033;-77
2021/08/15 05:36:58;;;;;;;13.05;10.50;;;;;;;;;;5034582;28;20052;-76
2021/08/15 05:39:25;;;;;;;13.45;10.95;;;;;;;;;;5034754;28;20037;-77
2021/08/15 05:41:51;;;;;;;12.30;10.32;;;;;;;;;;5034876;28;20099;-76
2021/08/15 05:44:17;;;;;;;12.20;10.90;;;;;;;;;;5034504;28;20065;-77
2021/08/15 05:46:43;;;;;;;11.73;10.60;;;;;;;;;;5034320;28;20044;-77
2021/08/15 05:49:09;;;;;;;13.15;10.32;;;;;;;;;;5035011;28;20469;-77
2021/08/15 05:51:36;;;;;;;12.52;9.57;;;;;;;;;;5034143;28;20087;-77
2021/08/15 05:54:02;;;;;;;13.25;10.98;;;;;;;;;;5034443;28;20088;-76
2021/08/15 05:56:31;;;;;;;16.55;11.50;;;;;;;;;;5034073;28;20358;-77
2021/08/15 05:58:57;;;;;;;12.13;10.82;;;;;;;;;;5033985;28;20111;-77
2021/08/15 06:01:23;;;;;;;11.30;9.77;;;;;;;;;;5033785;28;20037;-77
2021/08/15 06:03:49;;;;;;;12.43;10.95;;;;;;;;;;5034301;28;20045;-77
2021/08/15 06:06:15;;;;;;;11.55;9.90;;;;;;;;;;5034160;28;20057;-77
2021/08/15 06:08:41;;;;;;;12.00;10.77;;;;;;;;;;5034319;28;20048;-77
2021/08/15 06:11:07;;;;;;;11.10;10.00;;;;;;;;;;5033778;28;20480;-76
2021/08/15 06:13:33;;;;;;;16.38;10.20;;;;;;;;;;5034231;28;20115;-76
2021/08/15 06:16:00;;;;;;;10.45;9.38;;;;;;;;;;5033886;28;20116;-77
2021/08/15 06:18:26;;;;;;;10.82;9.30;;;;;;;;;;5016805;28;20046;-77
2021/08/15 06:20:52;;;;;;;12.63;9.30;;;;;;;;;;5038061;28;20045;-77
2021/08/15 06:23:18;;;;;;;10.68;8.63;;;;;;;;;;5037959;28;20088;-76
2021/08/15 06:25:44;;;;;;;9.63;7.95;;;;;;;;;;5038074;28;20048;-76
2021/08/15 06:28:10;;;;;;;10.45;9.05;;;;;;;;;;5037966;28;20045;-77
2021/08/15 06:30:36;;;;;;;10.52;8.82;;;;;;;;;;5038478;28;20493;-77
2021/08/15 06:33:02;;;;;;;9.35;8.02;;;;;;;;;;5037679;28;20059;-77
2021/08/15 06:35:28;;;;;;;8.70;7.80;;;;;;;;;;5038038;28;20044;-77
2021/08/15 06:37:55;;;;;;;9.10;7.93;;;;;;;;;;5037541;28;20079;-76
2021/08/15 06:40:22;;;;;;;9.50;7.75;;;;;;;;;;5037679;28;20049;-77
2021/08/15 06:42:48;;;;;;;8.43;7.63;;;;;;;;;;5037767;28;20061;-77
2021/08/15 06:45:15;;;;;;;7.70;6.97;;;;;;;;;;5037420;28;20064;-77
2021/08/15 06:47:41;;;;;;;8.85;7.57;;;;;;;;;;5038143;28;20037;-77
2021/08/15 06:50:07;;;;;;;7.45;6.70;;;;;;;;;;5037681;28;20053;-77
2021/08/15 06:52:34;;;;;;;7.38;6.68;;;;;;;;;;5037843;28;20061;-77
2021/08/15 06:55:00;;;;;;;7.78;6.35;;;;;;;;;;5037775;28;20042;-76
2021/08/15 06:57:27;;;;;;;7.70;6.88;;;;;;;;;;5037659;28;20534;-77
2021/08/15 06:59:53;;;;;;;6.60;5.75;;;;;;;;;;5037515;28;20052;-77
2021/08/15 07:02:20;;;;;;;6.93;6.22;;;;;;;;;;5037379;28;20034;-77
2021/08/15 07:04:46;;;;;;;6.60;5.65;;;;;;;;;;5037244;28;20038;-77
2021/08/15 07:07:12;;;;;;;6.63;6.03;;;;;;;;;;5036978;28;20044;-77
2021/08/15 07:09:38;;;;;;;6.45;5.57;;;;;;;;;;5037490;28;20084;-77
2021/08/15 07:12:05;;;;;;;6.05;5.45;;;;;;;;;;5037364;28;20572;-77
2021/08/15 07:14:31;;;;;;;5.93;5.38;;;;;;;;;;5037506;28;20060;-77
2021/08/15 07:16:57;;;;;;;6.18;5.57;;;;;;;;;;5037421;28;20045;-77
2021/08/15 07:19:24;;;;;;;5.63;5.03;;;;;;;;;;5036852;28;20037;-76
2021/08/15 07:21:50;;;;;;;6.30;5.68;;;;;;;;;;5037447;28;20053;-77
2021/08/15 07:24:16;;;;;;;6.47;5.57;;;;;;;;;;5037098;28;20187;-77
2021/08/15 07:26:42;;;;;;;7.90;5.28;;;;;;;;;;5036870;28;20128;-77
2021/08/15 07:29:08;;;;;;;5.50;5.00;;;;;;;;;;5036663;28;20041;-77
2021/08/15 07:31:34;;;;;;;6.35;5.50;;;;;;;;;;5018383;28;20065;-77
2021/08/15 07:34:01;;;;;;;5.70;5.20;;;;;;;;;;5037569;28;20038;-77
2021/08/15 07:36:27;;;;;;;5.45;4.95;;;;;;;;;;5036298;28;20504;-77
2021/08/15 07:38:53;;;;;;;4.88;4.47;;;;;;;;;;5036441;28;20099;-77
2021/08/15 07:41:19;;;;;;;5.13;4.45;;;;;;;;;;5036347;28;20056;-77
2021/08/15 07:43:46;;;;;;;5.10;4.70;;;;;;;;;;5036668;28;20076;-77
2021/08/15 07:46:13;;;;;;;5.15;4.65;;;;;;;;;;5037366;28;20061;-77
2021/08/15 07:48:40;;;;;;;4.78;4.38;;;;;;;;;;5018857;28;20412;-77
2021/08/15 07:51:07;;;;;;;5.35;4.70;;;;;;;;;;5036382;28;20095;-77
2021/08/15 07:53:33;;;;;;;5.00;4.50;;;;;;;;;;5036434;28;20033;-76
2021/08/15 07:55:59;;;;;;;4.93;4.53;;;;;;;;;;5036933;28;20465;-77
2021/08/15 07:58:25;;;;;;;4.80;4.30;;;;;;;;;;5036266;28;20033;-77
2021/08/15 08:00:52;;;;;;;4.53;4.10;;;;;;;;;;5036135;28;20168;-76
2021/08/15 08:03:18;;;;;;;4.95;4.45;;;;;;;;;;5037038;28;20116;-77
2021/08/15 08:05:44;;;;;;;5.05;4.22;;;;;;;;;;5036339;28;20040;-76
2021/08/15 08:08:11;;;;;;;5.00;4.50;;;;;;;;;;5035746;28;20069;-77
2021/08/15 08:10:38;;;;;;;5.57;4.60;;;;;;;;;;5036203;28;20107;-77
2021/08/15 08:13:06;;;;;;;4.88;4.35;;;;;;;;;;5036055;28;20083;-77
2021/08/15 08:15:32;;;;;;;5.13;4.50;;;;;;;;;;5035960;28;20128;-77
2021/08/15 08:17:58;;;;;;;4.72;4.32;;;;;;;;;;5035998;28;20124;-77
2021/08/15 08:20:24;;;;;;;4.35;3.95;;;;;;;;;;5035892;28;20071;-77
2021/08/15 08:22:50;;;;;;;4.22;3.83;;;;;;;;;;5036102;28;20049;-77
2021/08/15 08:25:17;;;;;;;5.30;4.80;;;;;;;;;;5036685;28;20045;-77
2021/08/15 08:27:44;;;;;;;4.90;4.40;;;;;;;;;;5036327;28;20073;-77
2021/08/15 08:30:11;;;;;;;4.53;4.13;;;;;;;;;;5036157;28;20041;-76
2021/08/15 08:32:37;;;;;;;5.30;4.80;;;;;;;;;;5036025;28;20033;-77
2021/08/15 08:35:04;;;;;;;5.63;5.00;;;;;;;;;;5035993;28;20047;-77
2021/08/15 08:37:30;;;;;;;5.57;5.00;;;;;;;;;;5017849;28;20179;-76
2021/08/15 08:39:59;;;;;;;5.10;4.63;;;;;;;;;;5036703;28;20069;-77
2021/08/15 08:42:27;;;;;;;5.47;4.97;;;;;;;;;;5034984;28;20034;-76
2021/08/15 08:44:54;;;;;;;4.68;4.28;;;;;;;;;;5035487;28;20052;-77
2021/08/15 08:47:21;;;;;;;4.95;4.50;;;;;;;;;;5035286;28;20041;-76
2021/08/15 08:49:47;;;;;;;5.60;4.63;;;;;;;;;;5035818;28;20064;-76
2021/08/15 08:52:13;;;;;;;6.18;5.43;;;;;;;;;;5035684;28;20041;-77
2021/08/15 08:54:40;;;;;;;7.40;5.10;;;;;;;;;;5035311;28;20087;-76
2021/08/15 08:57:06;;;;;;;4.90;4.50;;;;;;;;;;5035615;28;20073;-77
2021/08/15 08:59:36;;;;;;;5.43;4.93;;;;;;;;;;5035529;28;20543;-77
2021/08/15 09:02:02;;;;;;;5.45;5.03;;;;;;;;;;5035189;28;20048;-77
2021/08/15 09:04:28;;;;;;;5.93;4.90;;;;;;;;;;5035473;28;20034;-76
2021/08/15 09:06:54;;;;;;;6.55;4.72;;;;;;;;;;5035021;28;20041;-77
2021/08/15 09:09:21;;;;;;;5.65;5.15;;;;;;;;;;5035341;28;20045;-76
2021/08/15 09:11:49;;;;;;;6.03;5.00;;;;;;;;;;5035597;28;20096;-77
2021/08/15 09:14:16;;;;;;;5.88;5.20;;;;;;;;;;5035254;28;20041;-77
2021/08/15 09:16:49;;;;;;;7.20;5.68;;;;;;;;;;5035212;28;20045;-77
2021/08/15 09:19:29;;;;;;;6.35;5.75;;;;;;;;;;5034835;28;20029;-77
2021/08/15 09:21:57;;;;;;;5.78;5.00;;;;;;;;;;5034813;28;20489;-77
2021/08/15 09:24:23;;;;;;;5.40;4.90;;;;;;;;;;5034358;28;20033;-77
2021/08/15 09:27:00;;;;;;;5.65;5.05;;;;;;;;;;5034344;28;20124;-77
2021/08/15 09:29:26;;;;;;;6.68;5.97;;;;;;;;;;5034369;28;20493;-77
2021/08/15 09:31:53;;;;;;;8.32;6.60;;;;;;;;;;5034665;28;20107;-77
2021/08/15 09:34:28;;;;;;;8.70;6.35;;;;;;;;;;5034810;28;20134;-77
2021/08/15 09:36:55;;;;;;;6.45;5.85;;;;;;;;;;5034407;28;20527;-77
2021/08/15 09:39:31;;;;;;;7.22;5.57;;;;;;;;;;5034313;28;20592;-77
2021/08/15 09:41:58;;;;;;;6.03;5.53;;;;;;;;;;5035175;28;20077;-77
2021/08/15 09:44:26;;;;;;;6.35;5.78;;;;;;;;;;5034450;28;20506;-77
2021/08/15 09:47:01;;;;;;;6.22;5.63;;;;;;;;;;5034337;28;20476;-77
2021/08/15 09:49:38;;;;;;;8.30;5.78;;;;;;;;;;5034308;28;20527;-77
2021/08/15 09:52:05;;;;;;;6.22;5.63;;;;;;;;;;5035008;28;20092;-77
2021/08/15 09:54:32;;;;;;;6.65;5.32;;;;;;;;;;5033633;28;20073;-77
2021/08/15 09:56:58;;;;;;;11.32;7.10;;;;;;;;;;5034512;28;20044;-77
2021/08/15 09:59:26;;;;;;;6.72;6.05;;;;;;;;;;5034661;28;20041;-77
2021/08/15 10:01:52;;;;;;;6.47;5.95;;;;;;;;;;5034691;28;20087;-77
2021/08/15 10:04:18;;;;;;;6.25;5.60;;;;;;;;;;5034283;28;20029;-77
2021/08/15 10:06:46;;;;;;;7.13;6.50;;;;;;;;;;5033769;28;20112;-77
2021/08/15 10:09:12;;;;;;;9.63;6.93;;;;;;;;;;5034586;28;20132;-77
2021/08/15 10:11:39;;;;;;;7.07;6.38;;;;;;;;;;5034363;28;20534;-76
2021/08/15 10:14:07;;;;;;;10.95;7.05;;;;;;;;;;5034210;28;20044;-77
2021/08/15 10:16:53;;;;;;;7.07;6.38;;;;;;;;;;5034250;28;20041;-77
2021/08/15 10:19:32;;;;;;;6.95;6.38;;;;;;;;;;5023805;28;20038;-76
2021/08/15 10:21:59;;;;;;;8.57;6.88;;;;;;;;;;5034208;28;20061;-77
2021/08/15 10:24:42;;;;;;;6.30;5.72;;;;;;;;;;5035272;28;20088;-77
2021/08/15 10:27:09;;;;;;;6.85;5.95;;;;;;;;;;5034059;28;20045;-77
2021/08/15 10:29:36;;;;;;;7.55;6.72;;;;;;;;;;5034119;28;20050;-76
2021/08/15 10:32:11;;;;;;;6.53;5.82;;;;;;;;;;5034336;28;20034;-76
2021/08/15 10:34:49;;;;;;;7.40;5.88;;;;;;;;;;5034724;28;20128;-76
2021/08/15 10:37:27;;;;;;;7.40;6.30;;;;;;;;;;5034380;28;20045;-77
2021/08/15 10:39:53;;;;;;;7.28;6.65;;;;;;;;;;5016379;28;20125;-77
2021/08/15 10:42:38;;;;;;;7.32;6.60;;;;;;;;;;5033935;28;20033;-77
2021/08/15 10:45:07;;;;;;;6.78;5.93;;;;;;;;;;5034271;28;20116;-76
2021/08/15 10:47:33;;;;;;;7.45;6.70;;;;;;;;;;5034100;28;20532;-77
2021/08/15 10:50:03;;;;;;;9.05;7.00;;;;;;;;;;5034307;28;20037;-77
2021/08/15 10:52:37;;;;;;;7.82;7.03;;;;;;;;;;5034244;28;20129;-77
2021/08/15 10:55:17;;;;;;;7.35;6.65;;;;;;;;;;5034193;28;20065;-77
2021/08/15 10:57:46;;;;;;;8.48;7.63;;;;;;;;;;5034127;28;20049;-76
2021/08/15 11:00:30;;;;;;;7.63;6.93;;;;;;;;;;5034197;28;20111;-77
2021/08/15 11:02:57;;;;;;;8.07;7.28;;;;;;;;;;5034138;28;20076;-77
2021/08/15 11:05:36;;;;;;;7.65;6.93;;;;;;;;;;5035444;28;20048;-77
2021/08/15 11:08:03;;;;;;;7.80;7.05;;;;;;;;;;5038118;28;20041;-77
2021/08/15 11:10:47;;;;;;;10.20;7.40;;;;;;;;;;5038164;28;20504;-77
2021/08/15 11:13:17;;;;;;;8.05;7.25;;;;;;;;;;5037521;28;20038;-76
2021/08/15 11:15:43;;;;;;;8.40;7.60;;;;;;;;;;5037473;28;20044;-77
2021/08/15 11:18:10;;;;;;;10.70;7.85;;;;;;;;;;5037374;28;20041;-77
2021/08/15 11:20:42;;;;;;;9.05;7.57;;;;;;;;;;5037451;28;20099;-77
2021/08/15 11:23:17;;;;;;;10.07;7.85;;;;;;;;;;5036748;28;20045;-77
2021/08/15 11:25:44;;;;;;;11.13;8.95;;;;;;;;;;5019523;28;20448;-76
2021/08/15 11:28:11;;;;;;;8.85;7.95;;;;;;;;;;5036524;28;20041;-76
2021/08/15 11:30:37;;;;;;;10.32;8.38;;;;;;;;;;5036681;28;20412;-77
2021/08/15 11:33:07;;;;;;;11.50;8.55;;;;;;;;;;5037106;28;20118;-77
2021/08/15 11:35:35;;;;;;;11.10;8.70;;;;;;;;;;5036613;28;20048;-77
2021/08/15 11:38:01;;;;;;;9.93;8.93;;;;;;;;;;5036658;28;20047;-76
2021/08/15 11:40:27;;;;;;;9.60;8.70;;;;;;;;;;5036764;28;20045;-76
2021/08/15 11:42:56;;;;;;;9.63;8.68;;;;;;;;;;5036728;28;20033;-76
2021/08/15 11:45:30;;;;;;;10.35;9.13;;;;;;;;;;5018853;28;20388;-77
2021/08/15 11:47:56;;;;;;;12.07;9.52;;;;;;;;;;5036515;28;20045;-77
2021/08/15 11:50:22;;;;;;;13.02;10.10;;;;;;;;;;5036609;28;20508;-76
2021/08/15 11:52:50;;;;;;;13.20;9.63;;;;;;;;;;5036525;28;20038;-76
2021/08/15 11:55:24;;;;;;;12.02;9.88;;;;;;;;;;5036095;28;20036;-76
2021/08/15 11:57:52;;;;;;;12.43;10.65;;;;;;;;;;5036186;28;20098;-77
2021/08/15 12:00:25;;;;;;;12.43;10.68;;;;;;;;;;5036724;28;20484;-77
2021/08/15 12:03:11;;;;;;;10.75;9.75;;;;;;;;;;5036973;28;20179;-77
2021/08/15 12:05:41;;;;;;;13.75;10.75;;;;;;;;;;5035801;28;20120;-76
2021/08/15 12:08:10;;;;;;;13.95;10.52;;;;;;;;;;5035863;28;20128;-77
2021/08/15 12:10:41;;;;;;;14.38;10.63;;;;;;;;;;5036516;28;20045;-76
2021/08/15 12:13:18;;;;;;;12.25;10.20;;;;;;;;;;5036213;28;20079;-77
2021/08/15 12:15:49;;;;;;;11.30;10.23;;;;;;;;;;5035585;28;20125;-76
2021/08/15 12:18:34;;;;;;;14.85;10.98;;;;;;;;;;5035026;28;20500;-77
2021/08/15 12:21:00;;;;;;;13.07;11.00;;;;;;;;;;5036398;28;20033;-76
2021/08/15 12:23:27;;;;;;;15.63;11.55;;;;;;;;;;5035677;28;20209;-76
2021/08/15 12:26:06;;;;;;;13.57;10.68;;;;;;;;;;5035905;28;20049;-77
2021/08/15 12:28:33;;;;;;;12.25;10.52;;;;;;;;;;5035684;28;20052;-77
2021/08/15 12:31:22;;;;;;;14.30;10.27;;;;;;;;;;5036090;28;20049;-77
2021/08/15 12:33:49;;;;;;;13.68;11.00;;;;;;;;;;5036124;28;20042;-77
2021/08/15 12:36:19;;;;;;;15.27;10.90;;;;;;;;;;5035151;28;20445;-76
2021/08/15 12:38:45;;;;;;;12.20;10.85;;;;;;;;;;5035213;28;20045;-77
2021/08/15 12:41:29;;;;;;;14.32;11.45;;;;;;;;;;5035925;28;20041;-77
2021/08/15 12:44:08;;;;;;;13.32;11.15;;;;;;;;;;5035695;28;20046;-77
2021/08/15 12:46:34;;;;;;;13.93;11.07;;;;;;;;;;5035767;28;20037;-76
2021/08/15 12:49:13;;;;;;;13.77;11.35;;;;;;;;;;5035361;28;20562;-77
2021/08/15 12:51:39;;;;;;;14.70;11.50;;;;;;;;;;5035242;28;20045;-77
2021/08/15 12:54:06;;;;;;;14.85;11.93;;;;;;;;;;5035017;28;20037;-77
2021/08/15 12:56:32;;;;;;;14.52;11.52;;;;;;;;;;5034998;28;20489;-76
2021/08/15 12:58:58;;;;;;;14.38;11.63;;;;;;;;;;5035483;28;20048;-77
2021/08/15 13:01:24;;;;;;;13.30;10.45;;;;;;;;;;5035556;28;20072;-77
2021/08/15 13:03:50;;;;;;;13.25;10.98;;;;;;;;;;5035078;28;20041;-77
2021/08/15 13:06:22;;;;;;;12.73;10.75;;;;;;;;;;5035023;28;20163;-77
2021/08/15 13:08:48;;;;;;;13.60;11.88;;;;;;;;;;5035239;28;20136;-77
2021/08/15 13:11:14;;;;;;;12.30;11.05;;;;;;;;;;5035029;28;20176;-77
2021/08/15 13:13:40;;;;;;;11.73;10.52;;;;;;;;;;5016955;28;20396;-77
2021/08/15 13:16:06;;;;;;;12.85;11.25;;;;;;;;;;5034930;28;20072;-77
2021/08/15 13:18:32;;;;;;;12.80;11.15;;;;;;;;;;5034547;28;20053;-77
2021/08/15 13:20:58;;;;;;;12.60;11.30;;;;;;;;;;5034849;28;20120;-77
2021/08/15 13:23:24;;;;;;;14.93;11.75;;;;;;;;;;5034676;28;20512;-76
2021/08/15 13:25:50;;;;;;;13.07;11.20;;;;;;;;;;5034736;28;20043;-76
2021/08/15 13:28:21;;;;;;;12.65;11.30;;;;;;;;;;5035360;28;20107;-77
2021/08/15 13:30:47;;;;;;;15.63;11.73;;;;;;;;;;5034045;28;20054;-77
2021/08/15 13:33:13;;;;;;;16.90;11.93;;;;;;;;;;5034425;28;20092;-76
2021/08/15 13:35:39;;;;;;;16.77;11.38;;;;;;;;;;5034591;28;20037;-77
2021/08/15 13:38:06;;;;;;;12.27;10.63;;;;;;;;;;5034812;28;20151;-77
2021/08/15 13:40:32;;;;;;;12.88;11.02;;;;;;;;;;5034679;28;20052;-77
2021/08/15 13:43:00;;;;;;;13.18;11.25;;;;;;;;;;5034477;28;20139;-76
2021/08/15 13:45:26;;;;;;;13.10;11.20;;;;;;;;;;5034687;28;20034;-76
2021/08/15 13:47:53;;;;;;;15.38;11.55;;;;;;;;;;5034055;28;20500;-77
2021/08/15 13:50:20;;;;;;;12.73;11.05;;;;;;;;;;5034145;28;20037;-77
2021/08/15 13:52:47;;;;;;;13.25;10.88;;;;;;;;;;5033986;28;20129;-77
2021/08/15 13:55:15;;;;;;;13.90;11.15;;;;;;;;;;5034469;28;20042;-76
2021/08/15 13:57:44;;;;;;;13.70;10.73;;;;;;;;;;5034466;28;20139;-77
2021/08/15 14:00:11;;;;;;;13.23;10.68;;;;;;;;;;5035009;28;20080;-77
2021/08/15 14:02:37;;;;;;;13.70;11.52;;;;;;;;;;5034585;28;20045;-77
2021/08/15 14:05:04;;;;;;;12.60;10.60;;;;;;;;;;5033831;28;20100;-77
2021/08/15 14:07:30;;;;;;;11.82;10.63;;;;;;;;;;5034511;28;20048;-77
2021/08/15 14:09:56;;;;;;;13.35;11.18;;;;;;;;;;5033953;28;20046;-77
2021/08/15 14:12:23;;;;;;;16.05;10.70;;;;;;;;;;5034006;28;20034;-77
2021/08/15 14:14:49;;;;;;;14.43;11.65;;;;;;;;;;5034505;28;20042;-77
2021/08/15 14:17:17;;;;;;;15.43;10.98;;;;;;;;;;5033868;28;20072;-77
2021/08/15 14:19:43;;;;;;;13.20;11.13;;;;;;;;;;5033904;28;20075;-77
2021/08/15 14:22:09;;;;;;;15.48;11.27;;;;;;;;;;5033668;28;20064;-77
2021/08/15 14:24:36;;;;;;;14.93;10.90;;;;;;;;;;5034210;28;20037;-77
2021/08/15 14:27:02;;;;;;;14.02;10.23;;;;;;;;;;5033674;28;20041;-77
2021/08/15 14:29:28;;;;;;;13.15;11.35;;;;;;;;;;5034245;28;20047;-76
2021/08/15 14:31:54;;;;;;;15.13;10.88;;;;;;;;;;5034303;28;20041;-77